sensor_id;sensor_type;location;lat;lon;timestamp;temperature;humidity
8860;DHT22;4466;50.948;4.832;2024-03-08T00:00:17;5.30;99.90
8860;DHT22;4466;50.948;4.832;2024-03-08T00:02:46;5.30;99.90
8860;DHT22;4466;50.948;4.832;2024-03-08T00:05:13;5.20;99.90
8860;DHT22;4466;50.948;4.832;2024-03-08T00:07:40;5.20;99.90
8860;DHT22;4466;50.948;4.832;2024-03-08T00:10:07;5.20;99.90
8860;DHT22;4466;50.948;4.832;2024-03-08T00:12:37;5.20;99.90
8860;DHT22;4466;50.948;4.832;2024-03-08T00:15:03;5.20;99.90
8860;DHT22;4466;50.948;4.832;2024-03-08T00:17:28;5.10;99.90
8860;DHT22;4466;50.948;4.832;2024-03-08T00:19:54;5.10;99.90
8860;DHT22;4466;50.948;4.832;2024-03-08T00:22:20;5.10;99.90
8860;DHT22;4466;50.948;4.832;2024-03-08T00:24:47;5.00;99.90
8860;DHT22;4466;50.948;4.832;2024-03-08T00:27:14;5.00;99.90
8860;DHT22;4466;50.948;4.832;2024-03-08T00:29:41;5.00;99.90
8860;DHT22;4466;50.948;4.832;2024-03-08T00:32:06;5.00;99.90
8860;DHT22;4466;50.948;4.832;2024-03-08T00:34:36;4.90;99.90
8860;DHT22;4466;50.948;4.832;2024-03-08T00:37:03;4.90;99.90
8860;DHT22;4466;50.948;4.832;2024-03-08T00:39:29;4.90;99.90
8860;DHT22;4466;50.948;4.832;2024-03-08T00:41:55;4.90;99.90
8860;DHT22;4466;50.948;4.832;2024-03-08T00:44:20;4.90;99.90
8860;DHT22;4466;50.948;4.832;2024-03-08T00:46:46;4.90;99.90
8860;DHT22;4466;50.948;4.832;2024-03-08T00:49:12;4.80;99.90
8860;DHT22;4466;50.948;4.832;2024-03-08T00:51:38;4.80;99.90
8860;DHT22;4466;50.948;4.832;2024-03-08T00:54:04;4.80;99.90
8860;DHT22;4466;50.948;4.832;2024-03-08T00:56:29;4.80;99.90
8860;DHT22;4466;50.948;4.832;2024-03-08T00:58:55;4.80;99.90
8860;DHT22;4466;50.948;4.832;2024-03-08T01:01:21;4.80;99.90
8860;DHT22;4466;50.948;4.832;2024-03-08T01:03:46;4.80;99.90
8860;DHT22;4466;50.948;4.832;2024-03-08T01:06:12;4.80;99.90
8860;DHT22;4466;50.948;4.832;2024-03-08T01:08:38;4.70;99.90
8860;DHT22;4466;50.948;4.832;2024-03-08T01:11:06;4.70;99.90
8860;DHT22;4466;50.948;4.832;2024-03-08T01:13:32;4.70;99.90
8860;DHT22;4466;50.948;4.832;2024-03-08T01:15:57;4.70;99.90
8860;DHT22;4466;50.948;4.832;2024-03-08T01:18:23;4.60;99.90
8860;DHT22;4466;50.948;4.832;2024-03-08T01:20:49;4.60;99.90
8860;DHT22;4466;50.948;4.832;2024-03-08T01:23:14;4.60;99.90
8860;DHT22;4466;50.948;4.832;2024-03-08T01:25:40;4.60;99.90
8860;DHT22;4466;50.948;4.832;2024-03-08T01:28:07;4.60;99.90
8860;DHT22;4466;50.948;4.832;2024-03-08T01:30:32;4.60;99.90
8860;DHT22;4466;50.948;4.832;2024-03-08T01:33:00;4.60;99.90
8860;DHT22;4466;50.948;4.832;2024-03-08T01:35:25;4.50;99.90
8860;DHT22;4466;50.948;4.832;2024-03-08T01:37:52;4.50;99.90
8860;DHT22;4466;50.948;4.832;2024-03-08T01:40:18;4.50;99.90
8860;DHT22;4466;50.948;4.832;2024-03-08T01:42:44;4.40;99.90
8860;DHT22;4466;50.948;4.832;2024-03-08T01:45:10;4.40;99.90
8860;DHT22;4466;50.948;4.832;2024-03-08T01:47:36;4.40;99.90
8860;DHT22;4466;50.948;4.832;2024-03-08T01:50:02;4.40;99.90
8860;DHT22;4466;50.948;4.832;2024-03-08T01:52:33;4.40;99.90
8860;DHT22;4466;50.948;4.832;2024-03-08T01:54:59;4.40;99.90
8860;DHT22;4466;50.948;4.832;2024-03-08T01:57:27;4.40;99.90
8860;DHT22;4466;50.948;4.832;2024-03-08T01:59:54;4.30;99.90
8860;DHT22;4466;50.948;4.832;2024-03-08T02:02:21;4.30;99.90
8860;DHT22;4466;50.948;4.832;2024-03-08T02:04:48;4.30;99.90
8860;DHT22;4466;50.948;4.832;2024-03-08T02:07:13;4.30;99.90
8860;DHT22;4466;50.948;4.832;2024-03-08T02:09:39;4.30;99.90
8860;DHT22;4466;50.948;4.832;2024-03-08T02:12:05;4.30;99.90
8860;DHT22;4466;50.948;4.832;2024-03-08T02:14:32;4.30;99.90
8860;DHT22;4466;50.948;4.832;2024-03-08T02:17:01;4.30;99.90
8860;DHT22;4466;50.948;4.832;2024-03-08T02:19:27;4.30;99.90
8860;DHT22;4466;50.948;4.832;2024-03-08T02:21:53;4.20;99.90
8860;DHT22;4466;50.948;4.832;2024-03-08T02:24:19;4.20;99.90
8860;DHT22;4466;50.948;4.832;2024-03-08T02:26:44;4.20;99.90
8860;DHT22;4466;50.948;4.832;2024-03-08T02:29:10;4.20;99.90
8860;DHT22;4466;50.948;4.832;2024-03-08T02:31:36;4.20;99.90
8860;DHT22;4466;50.948;4.832;2024-03-08T02:34:02;4.10;99.90
8860;DHT22;4466;50.948;4.832;2024-03-08T02:36:27;4.20;99.90
8860;DHT22;4466;50.948;4.832;2024-03-08T02:38:53;4.10;99.90
8860;DHT22;4466;50.948;4.832;2024-03-08T02:41:20;4.10;99.90
8860;DHT22;4466;50.948;4.832;2024-03-08T02:43:46;4.10;99.90
8860;DHT22;4466;50.948;4.832;2024-03-08T02:46:12;4.10;99.90
8860;DHT22;4466;50.948;4.832;2024-03-08T02:48:37;4.10;99.90
8860;DHT22;4466;50.948;4.832;2024-03-08T02:51:05;4.10;99.90
8860;DHT22;4466;50.948;4.832;2024-03-08T02:53:31;4.00;99.90
8860;DHT22;4466;50.948;4.832;2024-03-08T02:55:56;4.00;99.90
8860;DHT22;4466;50.948;4.832;2024-03-08T02:58:22;4.00;99.90
8860;DHT22;4466;50.948;4.832;2024-03-08T03:00:48;4.00;99.90
8860;DHT22;4466;50.948;4.832;2024-03-08T03:03:14;4.00;99.90
8860;DHT22;4466;50.948;4.832;2024-03-08T03:05:40;3.90;99.90
8860;DHT22;4466;50.948;4.832;2024-03-08T03:08:07;3.90;99.90
8860;DHT22;4466;50.948;4.832;2024-03-08T03:10:35;3.90;99.90
8860;DHT22;4466;50.948;4.832;2024-03-08T03:13:01;4.00;99.90
8860;DHT22;4466;50.948;4.832;2024-03-08T03:15:27;4.00;99.90
8860;DHT22;4466;50.948;4.832;2024-03-08T03:17:52;4.00;99.90
8860;DHT22;4466;50.948;4.832;2024-03-08T03:20:18;3.90;99.90
8860;DHT22;4466;50.948;4.832;2024-03-08T03:23:07;3.90;99.90
8860;DHT22;4466;50.948;4.832;2024-03-08T03:25:34;3.90;99.90
8860;DHT22;4466;50.948;4.832;2024-03-08T03:28:04;3.90;99.90
8860;DHT22;4466;50.948;4.832;2024-03-08T03:30:30;3.90;99.90
8860;DHT22;4466;50.948;4.832;2024-03-08T03:33:01;3.80;99.90
8860;DHT22;4466;50.948;4.832;2024-03-08T03:35:28;3.80;99.90
8860;DHT22;4466;50.948;4.832;2024-03-08T03:37:55;3.80;99.90
8860;DHT22;4466;50.948;4.832;2024-03-08T03:40:39;3.80;99.90
8860;DHT22;4466;50.948;4.832;2024-03-08T03:43:10;3.80;99.90
8860;DHT22;4466;50.948;4.832;2024-03-08T03:45:36;3.70;99.90
8860;DHT22;4466;50.948;4.832;2024-03-08T03:48:07;3.70;99.90
8860;DHT22;4466;50.948;4.832;2024-03-08T03:50:35;3.70;99.90
8860;DHT22;4466;50.948;4.832;2024-03-08T03:53:01;3.70;99.90
8860;DHT22;4466;50.948;4.832;2024-03-08T03:55:27;3.70;99.90
8860;DHT22;4466;50.948;4.832;2024-03-08T03:57:54;3.70;99.90
8860;DHT22;4466;50.948;4.832;2024-03-08T04:00:20;3.60;99.90
8860;DHT22;4466;50.948;4.832;2024-03-08T04:02:45;3.60;99.90
8860;DHT22;4466;50.948;4.832;2024-03-08T04:05:12;3.60;99.90
8860;DHT22;4466;50.948;4.832;2024-03-08T04:07:38;3.60;99.90
8860;DHT22;4466;50.948;4.832;2024-03-08T04:10:06;3.60;99.90
8860;DHT22;4466;50.948;4.832;2024-03-08T04:12:33;3.60;99.90
8860;DHT22;4466;50.948;4.832;2024-03-08T04:14:58;3.50;99.90
8860;DHT22;4466;50.948;4.832;2024-03-08T04:17:24;3.50;99.90
8860;DHT22;4466;50.948;4.832;2024-03-08T04:19:50;3.50;99.90
8860;DHT22;4466;50.948;4.832;2024-03-08T04:22:16;3.50;99.90
8860;DHT22;4466;50.948;4.832;2024-03-08T04:24:45;3.50;99.90
8860;DHT22;4466;50.948;4.832;2024-03-08T04:27:12;3.50;99.90
8860;DHT22;4466;50.948;4.832;2024-03-08T04:29:37;3.50;99.90
8860;DHT22;4466;50.948;4.832;2024-03-08T04:32:04;3.50;99.90
8860;DHT22;4466;50.948;4.832;2024-03-08T04:34:31;3.40;99.90
8860;DHT22;4466;50.948;4.832;2024-03-08T04:37:00;3.50;99.90
8860;DHT22;4466;50.948;4.832;2024-03-08T04:39:26;3.50;99.90
8860;DHT22;4466;50.948;4.832;2024-03-08T04:41:57;3.50;99.90
8860;DHT22;4466;50.948;4.832;2024-03-08T04:44:24;3.50;99.90
8860;DHT22;4466;50.948;4.832;2024-03-08T04:46:52;3.40;99.90
8860;DHT22;4466;50.948;4.832;2024-03-08T04:49:18;3.40;99.90
8860;DHT22;4466;50.948;4.832;2024-03-08T04:51:43;3.40;99.90
8860;DHT22;4466;50.948;4.832;2024-03-08T04:54:10;3.40;99.90
8860;DHT22;4466;50.948;4.832;2024-03-08T04:56:36;3.40;99.90
8860;DHT22;4466;50.948;4.832;2024-03-08T04:59:02;3.40;99.90
8860;DHT22;4466;50.948;4.832;2024-03-08T05:01:27;3.30;99.90
8860;DHT22;4466;50.948;4.832;2024-03-08T05:03:53;3.30;99.90
8860;DHT22;4466;50.948;4.832;2024-03-08T05:06:20;3.30;99.90
8860;DHT22;4466;50.948;4.832;2024-03-08T05:08:46;3.20;99.90
8860;DHT22;4466;50.948;4.832;2024-03-08T05:11:12;3.20;99.90
8860;DHT22;4466;50.948;4.832;2024-03-08T05:13:40;3.10;99.90
8860;DHT22;4466;50.948;4.832;2024-03-08T05:16:06;3.10;99.90
8860;DHT22;4466;50.948;4.832;2024-03-08T05:18:33;3.10;99.90
8860;DHT22;4466;50.948;4.832;2024-03-08T05:20:59;3.10;99.90
8860;DHT22;4466;50.948;4.832;2024-03-08T05:23:24;3.10;99.90
8860;DHT22;4466;50.948;4.832;2024-03-08T05:25:50;3.10;99.90
8860;DHT22;4466;50.948;4.832;2024-03-08T05:28:16;3.10;99.90
8860;DHT22;4466;50.948;4.832;2024-03-08T05:30:42;3.10;99.90
8860;DHT22;4466;50.948;4.832;2024-03-08T05:33:08;3.10;99.90
8860;DHT22;4466;50.948;4.832;2024-03-08T05:35:36;3.10;99.90
8860;DHT22;4466;50.948;4.832;2024-03-08T05:38:02;3.10;99.90
8860;DHT22;4466;50.948;4.832;2024-03-08T05:40:28;3.10;99.90
8860;DHT22;4466;50.948;4.832;2024-03-08T05:42:58;3.00;99.90
8860;DHT22;4466;50.948;4.832;2024-03-08T05:45:24;3.10;99.90
8860;DHT22;4466;50.948;4.832;2024-03-08T05:47:50;3.10;99.90
8860;DHT22;4466;50.948;4.832;2024-03-08T05:50:17;3.00;99.90
8860;DHT22;4466;50.948;4.832;2024-03-08T05:52:43;3.00;99.90
8860;DHT22;4466;50.948;4.832;2024-03-08T05:55:09;3.00;99.90
8860;DHT22;4466;50.948;4.832;2024-03-08T05:57:35;3.00;99.90
8860;DHT22;4466;50.948;4.832;2024-03-08T06:00:05;3.00;99.90
8860;DHT22;4466;50.948;4.832;2024-03-08T06:02:31;3.00;99.90
8860;DHT22;4466;50.948;4.832;2024-03-08T06:04:57;2.90;99.90
8860;DHT22;4466;50.948;4.832;2024-03-08T06:07:22;2.90;99.90
8860;DHT22;4466;50.948;4.832;2024-03-08T06:09:51;2.90;99.90
8860;DHT22;4466;50.948;4.832;2024-03-08T06:12:17;2.90;99.90
8860;DHT22;4466;50.948;4.832;2024-03-08T06:14:45;2.90;99.90
8860;DHT22;4466;50.948;4.832;2024-03-08T06:17:10;2.90;99.90
8860;DHT22;4466;50.948;4.832;2024-03-08T06:19:37;2.90;99.90
8860;DHT22;4466;50.948;4.832;2024-03-08T06:22:02;2.90;99.90
8860;DHT22;4466;50.948;4.832;2024-03-08T06:24:31;2.90;99.90
8860;DHT22;4466;50.948;4.832;2024-03-08T06:26:57;2.90;99.90
8860;DHT22;4466;50.948;4.832;2024-03-08T06:29:23;2.90;99.90
8860;DHT22;4466;50.948;4.832;2024-03-08T06:31:49;2.90;99.90
8860;DHT22;4466;50.948;4.832;2024-03-08T06:34:15;2.90;99.90
8860;DHT22;4466;50.948;4.832;2024-03-08T06:36:41;3.00;99.90
8860;DHT22;4466;50.948;4.832;2024-03-08T06:39:06;3.00;99.90
8860;DHT22;4466;50.948;4.832;2024-03-08T06:41:38;3.00;99.90
8860;DHT22;4466;50.948;4.832;2024-03-08T06:44:03;3.00;99.90
8860;DHT22;4466;50.948;4.832;2024-03-08T06:46:29;3.00;99.90
8860;DHT22;4466;50.948;4.832;2024-03-08T06:48:55;3.00;99.90
8860;DHT22;4466;50.948;4.832;2024-03-08T06:51:21;3.10;99.90
8860;DHT22;4466;50.948;4.832;2024-03-08T06:53:47;3.10;99.90
8860;DHT22;4466;50.948;4.832;2024-03-08T06:56:14;3.10;99.90
8860;DHT22;4466;50.948;4.832;2024-03-08T06:58:40;3.20;99.90
8860;DHT22;4466;50.948;4.832;2024-03-08T07:01:06;3.20;99.90
8860;DHT22;4466;50.948;4.832;2024-03-08T07:03:33;3.20;99.90
8860;DHT22;4466;50.948;4.832;2024-03-08T07:05:59;3.30;99.90
8860;DHT22;4466;50.948;4.832;2024-03-08T07:08:25;3.30;99.90
8860;DHT22;4466;50.948;4.832;2024-03-08T07:10:53;3.40;99.90
8860;DHT22;4466;50.948;4.832;2024-03-08T07:13:18;3.40;99.90
8860;DHT22;4466;50.948;4.832;2024-03-08T07:15:44;3.50;99.90
8860;DHT22;4466;50.948;4.832;2024-03-08T07:18:11;3.60;99.90
8860;DHT22;4466;50.948;4.832;2024-03-08T07:20:40;3.60;99.90
8860;DHT22;4466;50.948;4.832;2024-03-08T07:23:06;3.70;99.90
8860;DHT22;4466;50.948;4.832;2024-03-08T07:25:31;3.80;99.90
8860;DHT22;4466;50.948;4.832;2024-03-08T07:27:57;3.80;99.90
8860;DHT22;4466;50.948;4.832;2024-03-08T07:30:24;3.90;99.90
8860;DHT22;4466;50.948;4.832;2024-03-08T07:33:08;4.00;99.90
8860;DHT22;4466;50.948;4.832;2024-03-08T07:35:37;4.00;99.90
8860;DHT22;4466;50.948;4.832;2024-03-08T07:38:07;4.20;99.90
8860;DHT22;4466;50.948;4.832;2024-03-08T07:40:41;4.20;99.90
8860;DHT22;4466;50.948;4.832;2024-03-08T07:43:10;4.30;99.90
8860;DHT22;4466;50.948;4.832;2024-03-08T07:45:39;4.40;99.90
8860;DHT22;4466;50.948;4.832;2024-03-08T07:48:06;4.40;99.90
8860;DHT22;4466;50.948;4.832;2024-03-08T07:50:38;4.50;99.90
8860;DHT22;4466;50.948;4.832;2024-03-08T07:53:05;4.60;99.90
8860;DHT22;4466;50.948;4.832;2024-03-08T07:55:35;4.70;99.90
8860;DHT22;4466;50.948;4.832;2024-03-08T07:58:04;4.70;99.90
8860;DHT22;4466;50.948;4.832;2024-03-08T08:00:30;4.80;99.90
8860;DHT22;4466;50.948;4.832;2024-03-08T08:02:57;4.80;99.90
8860;DHT22;4466;50.948;4.832;2024-03-08T08:05:22;4.90;99.90
8860;DHT22;4466;50.948;4.832;2024-03-08T08:07:48;5.00;99.90
8860;DHT22;4466;50.948;4.832;2024-03-08T08:10:15;5.00;99.90
8860;DHT22;4466;50.948;4.832;2024-03-08T08:12:47;5.10;99.90
8860;DHT22;4466;50.948;4.832;2024-03-08T08:15:13;5.20;99.90
8860;DHT22;4466;50.948;4.832;2024-03-08T08:17:41;5.30;99.90
8860;DHT22;4466;50.948;4.832;2024-03-08T08:20:08;5.30;99.90
8860;DHT22;4466;50.948;4.832;2024-03-08T08:22:34;5.40;99.90
8860;DHT22;4466;50.948;4.832;2024-03-08T08:25:00;5.50;99.90
8860;DHT22;4466;50.948;4.832;2024-03-08T08:27:27;5.50;99.90
8860;DHT22;4466;50.948;4.832;2024-03-08T08:29:52;5.60;99.90
8860;DHT22;4466;50.948;4.832;2024-03-08T08:32:18;5.70;99.90
8860;DHT22;4466;50.948;4.832;2024-03-08T08:34:45;5.80;99.90
8860;DHT22;4466;50.948;4.832;2024-03-08T08:37:11;5.80;99.90
8860;DHT22;4466;50.948;4.832;2024-03-08T08:39:37;5.90;99.90
8860;DHT22;4466;50.948;4.832;2024-03-08T08:42:03;5.90;99.90
8860;DHT22;4466;50.948;4.832;2024-03-08T08:44:29;6.00;99.90
8860;DHT22;4466;50.948;4.832;2024-03-08T08:46:57;6.00;99.90
8860;DHT22;4466;50.948;4.832;2024-03-08T08:49:23;6.10;99.90
8860;DHT22;4466;50.948;4.832;2024-03-08T08:51:50;6.20;99.90
8860;DHT22;4466;50.948;4.832;2024-03-08T08:54:18;6.20;99.90
8860;DHT22;4466;50.948;4.832;2024-03-08T08:56:50;6.20;99.90
8860;DHT22;4466;50.948;4.832;2024-03-08T08:59:17;6.40;99.90
8860;DHT22;4466;50.948;4.832;2024-03-08T09:01:45;6.40;99.90
8860;DHT22;4466;50.948;4.832;2024-03-08T09:04:14;6.50;99.90
8860;DHT22;4466;50.948;4.832;2024-03-08T09:06:39;6.50;99.90
8860;DHT22;4466;50.948;4.832;2024-03-08T09:09:08;6.60;99.90
8860;DHT22;4466;50.948;4.832;2024-03-08T09:11:39;6.70;99.90
8860;DHT22;4466;50.948;4.832;2024-03-08T09:14:08;6.70;99.90
8860;DHT22;4466;50.948;4.832;2024-03-08T09:16:34;6.80;99.90
8860;DHT22;4466;50.948;4.832;2024-03-08T09:19:00;7.00;99.90
8860;DHT22;4466;50.948;4.832;2024-03-08T09:21:26;7.00;99.90
8860;DHT22;4466;50.948;4.832;2024-03-08T09:23:53;7.00;99.90
8860;DHT22;4466;50.948;4.832;2024-03-08T09:26:19;7.00;99.90
8860;DHT22;4466;50.948;4.832;2024-03-08T09:28:45;7.10;99.90
8860;DHT22;4466;50.948;4.832;2024-03-08T09:31:11;7.20;99.90
8860;DHT22;4466;50.948;4.832;2024-03-08T09:33:37;7.20;99.90
8860;DHT22;4466;50.948;4.832;2024-03-08T09:36:05;7.30;99.90
8860;DHT22;4466;50.948;4.832;2024-03-08T09:38:33;7.30;99.90
8860;DHT22;4466;50.948;4.832;2024-03-08T09:41:00;7.40;99.90
8860;DHT22;4466;50.948;4.832;2024-03-08T09:43:28;7.40;99.90
8860;DHT22;4466;50.948;4.832;2024-03-08T09:45:54;7.50;99.90
8860;DHT22;4466;50.948;4.832;2024-03-08T09:48:22;7.50;99.90
8860;DHT22;4466;50.948;4.832;2024-03-08T09:50:48;7.60;99.90
8860;DHT22;4466;50.948;4.832;2024-03-08T09:53:15;7.70;99.90
8860;DHT22;4466;50.948;4.832;2024-03-08T09:55:40;7.70;99.90
8860;DHT22;4466;50.948;4.832;2024-03-08T09:58:11;7.80;99.90
8860;DHT22;4466;50.948;4.832;2024-03-08T10:00:49;7.90;99.90
8860;DHT22;4466;50.948;4.832;2024-03-08T10:03:14;7.90;99.90
8860;DHT22;4466;50.948;4.832;2024-03-08T10:05:43;8.00;99.90
8860;DHT22;4466;50.948;4.832;2024-03-08T10:08:10;8.00;99.90
8860;DHT22;4466;50.948;4.832;2024-03-08T10:10:37;8.10;99.90
8860;DHT22;4466;50.948;4.832;2024-03-08T10:13:09;8.10;99.90
8860;DHT22;4466;50.948;4.832;2024-03-08T10:15:39;8.10;99.90
8860;DHT22;4466;50.948;4.832;2024-03-08T10:18:05;8.10;99.90
8860;DHT22;4466;50.948;4.832;2024-03-08T10:20:32;8.20;99.90
8860;DHT22;4466;50.948;4.832;2024-03-08T10:23:04;8.30;99.90
8860;DHT22;4466;50.948;4.832;2024-03-08T10:25:34;8.30;99.90
8860;DHT22;4466;50.948;4.832;2024-03-08T10:28:00;8.40;99.90
8860;DHT22;4466;50.948;4.832;2024-03-08T10:30:29;8.40;99.90
8860;DHT22;4466;50.948;4.832;2024-03-08T10:32:55;8.50;99.90
8860;DHT22;4466;50.948;4.832;2024-03-08T10:35:21;8.60;99.90
8860;DHT22;4466;50.948;4.832;2024-03-08T10:37:49;8.60;99.90
8860;DHT22;4466;50.948;4.832;2024-03-08T10:40:19;8.70;99.90
8860;DHT22;4466;50.948;4.832;2024-03-08T10:42:53;8.60;99.90
8860;DHT22;4466;50.948;4.832;2024-03-08T10:48:08;8.70;99.90
8860;DHT22;4466;50.948;4.832;2024-03-08T10:50:36;8.70;99.90
8860;DHT22;4466;50.948;4.832;2024-03-08T10:53:05;8.80;99.90
8860;DHT22;4466;50.948;4.832;2024-03-08T10:55:33;8.80;99.90
8860;DHT22;4466;50.948;4.832;2024-03-08T10:57:59;8.90;99.90
8860;DHT22;4466;50.948;4.832;2024-03-08T11:00:26;8.90;99.90
8860;DHT22;4466;50.948;4.832;2024-03-08T11:02:53;8.90;99.90
8860;DHT22;4466;50.948;4.832;2024-03-08T11:05:39;8.90;99.90
8860;DHT22;4466;50.948;4.832;2024-03-08T11:10:58;9.00;99.90
8860;DHT22;4466;50.948;4.832;2024-03-08T11:13:37;9.10;99.90
8860;DHT22;4466;50.948;4.832;2024-03-08T11:18:53;9.20;99.90
8860;DHT22;4466;50.948;4.832;2024-03-08T11:21:19;9.30;99.90
8860;DHT22;4466;50.948;4.832;2024-03-08T11:23:59;9.40;99.90
8860;DHT22;4466;50.948;4.832;2024-03-08T11:26:25;9.40;99.90
8860;DHT22;4466;50.948;4.832;2024-03-08T11:28:51;9.50;99.90
8860;DHT22;4466;50.948;4.832;2024-03-08T11:33:47;9.60;99.90
8860;DHT22;4466;50.948;4.832;2024-03-08T11:36:21;9.70;99.90
8860;DHT22;4466;50.948;4.832;2024-03-08T11:38:48;9.70;99.90
8860;DHT22;4466;50.948;4.832;2024-03-08T11:41:18;9.70;99.90
8860;DHT22;4466;50.948;4.832;2024-03-08T11:43:46;9.70;99.90
8860;DHT22;4466;50.948;4.832;2024-03-08T11:46:16;9.80;99.90
8860;DHT22;4466;50.948;4.832;2024-03-08T11:48:43;9.90;99.90
8860;DHT22;4466;50.948;4.832;2024-03-08T11:51:11;9.90;99.90
8860;DHT22;4466;50.948;4.832;2024-03-08T11:53:37;10.10;99.90
8860;DHT22;4466;50.948;4.832;2024-03-08T11:56:11;10.10;99.90
8860;DHT22;4466;50.948;4.832;2024-03-08T11:58:37;10.20;99.90
8860;DHT22;4466;50.948;4.832;2024-03-08T12:01:04;10.20;99.90
8860;DHT22;4466;50.948;4.832;2024-03-08T12:03:31;10.30;99.90
8860;DHT22;4466;50.948;4.832;2024-03-08T12:06:00;10.40;99.90
8860;DHT22;4466;50.948;4.832;2024-03-08T12:08:27;10.50;99.90
8860;DHT22;4466;50.948;4.832;2024-03-08T12:10:58;10.50;99.90
8860;DHT22;4466;50.948;4.832;2024-03-08T12:13:28;10.50;99.90
8860;DHT22;4466;50.948;4.832;2024-03-08T12:15:58;10.60;99.90
8860;DHT22;4466;50.948;4.832;2024-03-08T12:18:27;10.70;99.90
8860;DHT22;4466;50.948;4.832;2024-03-08T12:21:11;10.70;99.90
8860;DHT22;4466;50.948;4.832;2024-03-08T12:23:38;10.70;99.90
8860;DHT22;4466;50.948;4.832;2024-03-08T12:26:15;10.80;99.90
8860;DHT22;4466;50.948;4.832;2024-03-08T12:28:42;10.90;99.90
8860;DHT22;4466;50.948;4.832;2024-03-08T12:31:17;10.90;99.90
8860;DHT22;4466;50.948;4.832;2024-03-08T12:33:54;10.90;99.90
8860;DHT22;4466;50.948;4.832;2024-03-08T12:36:20;10.90;99.90
8860;DHT22;4466;50.948;4.832;2024-03-08T12:38:47;10.90;99.90
8860;DHT22;4466;50.948;4.832;2024-03-08T12:41:16;11.00;99.90
8860;DHT22;4466;50.948;4.832;2024-03-08T12:43:45;11.10;99.90
8860;DHT22;4466;50.948;4.832;2024-03-08T12:46:18;11.10;99.90
8860;DHT22;4466;50.948;4.832;2024-03-08T12:48:49;11.20;99.90
8860;DHT22;4466;50.948;4.832;2024-03-08T12:51:15;11.30;99.90
8860;DHT22;4466;50.948;4.832;2024-03-08T12:53:42;11.30;99.90
8860;DHT22;4466;50.948;4.832;2024-03-08T12:56:11;11.40;99.90
8860;DHT22;4466;50.948;4.832;2024-03-08T12:58:38;11.40;99.90
8860;DHT22;4466;50.948;4.832;2024-03-08T13:01:04;11.50;99.90
8860;DHT22;4466;50.948;4.832;2024-03-08T13:03:35;11.70;99.90
8860;DHT22;4466;50.948;4.832;2024-03-08T13:06:05;11.60;99.90
8860;DHT22;4466;50.948;4.832;2024-03-08T13:08:37;11.70;99.90
8860;DHT22;4466;50.948;4.832;2024-03-08T13:11:10;11.70;99.90
8860;DHT22;4466;50.948;4.832;2024-03-08T13:13:40;11.70;99.90
8860;DHT22;4466;50.948;4.832;2024-03-08T13:16:07;11.70;99.90
8860;DHT22;4466;50.948;4.832;2024-03-08T13:18:36;11.80;99.90
8860;DHT22;4466;50.948;4.832;2024-03-08T13:21:01;11.80;99.90
8860;DHT22;4466;50.948;4.832;2024-03-08T13:23:31;11.90;99.90
8860;DHT22;4466;50.948;4.832;2024-03-08T13:25:57;11.90;99.90
8860;DHT22;4466;50.948;4.832;2024-03-08T13:28:23;12.00;99.90
8860;DHT22;4466;50.948;4.832;2024-03-08T13:30:53;12.00;99.90
8860;DHT22;4466;50.948;4.832;2024-03-08T13:33:19;12.10;99.90
8860;DHT22;4466;50.948;4.832;2024-03-08T13:35:46;12.10;99.90
8860;DHT22;4466;50.948;4.832;2024-03-08T13:38:12;12.20;99.90
8860;DHT22;4466;50.948;4.832;2024-03-08T13:40:39;12.20;99.90
8860;DHT22;4466;50.948;4.832;2024-03-08T13:43:06;12.30;99.90
8860;DHT22;4466;50.948;4.832;2024-03-08T13:45:34;12.20;99.90
8860;DHT22;4466;50.948;4.832;2024-03-08T13:48:03;12.30;99.90
8860;DHT22;4466;50.948;4.832;2024-03-08T13:50:30;12.30;99.90
8860;DHT22;4466;50.948;4.832;2024-03-08T13:52:56;12.30;99.90
8860;DHT22;4466;50.948;4.832;2024-03-08T13:55:22;12.30;99.90
8860;DHT22;4466;50.948;4.832;2024-03-08T13:57:48;12.40;99.90
8860;DHT22;4466;50.948;4.832;2024-03-08T14:00:14;12.40;99.90
8860;DHT22;4466;50.948;4.832;2024-03-08T14:02:40;12.50;99.90
8860;DHT22;4466;50.948;4.832;2024-03-08T14:05:09;12.50;99.90
8860;DHT22;4466;50.948;4.832;2024-03-08T14:07:37;12.50;99.90
8860;DHT22;4466;50.948;4.832;2024-03-08T14:10:03;12.50;99.90
8860;DHT22;4466;50.948;4.832;2024-03-08T14:12:29;12.60;99.90
8860;DHT22;4466;50.948;4.832;2024-03-08T14:14:55;12.60;99.90
8860;DHT22;4466;50.948;4.832;2024-03-08T14:17:25;12.60;99.90
8860;DHT22;4466;50.948;4.832;2024-03-08T14:19:52;12.70;99.90
8860;DHT22;4466;50.948;4.832;2024-03-08T14:22:18;12.70;99.90
8860;DHT22;4466;50.948;4.832;2024-03-08T14:24:44;12.80;99.90
8860;DHT22;4466;50.948;4.832;2024-03-08T14:27:10;12.90;99.90
8860;DHT22;4466;50.948;4.832;2024-03-08T14:29:37;12.90;99.90
8860;DHT22;4466;50.948;4.832;2024-03-08T14:32:07;12.90;99.90
8860;DHT22;4466;50.948;4.832;2024-03-08T14:34:34;13.00;99.90
8860;DHT22;4466;50.948;4.832;2024-03-08T14:37:00;13.00;99.90
8860;DHT22;4466;50.948;4.832;2024-03-08T14:39:26;13.10;99.90
8860;DHT22;4466;50.948;4.832;2024-03-08T14:41:55;13.10;99.90
8860;DHT22;4466;50.948;4.832;2024-03-08T14:44:21;13.20;99.90
8860;DHT22;4466;50.948;4.832;2024-03-08T14:46:57;13.30;99.90
8860;DHT22;4466;50.948;4.832;2024-03-08T14:49:23;13.20;99.90
8860;DHT22;4466;50.948;4.832;2024-03-08T14:51:49;13.30;99.90
8860;DHT22;4466;50.948;4.832;2024-03-08T14:54:14;13.30;99.90
8860;DHT22;4466;50.948;4.832;2024-03-08T14:56:48;13.30;99.90
8860;DHT22;4466;50.948;4.832;2024-03-08T14:59:15;13.40;99.90
8860;DHT22;4466;50.948;4.832;2024-03-08T15:01:40;13.40;99.90
8860;DHT22;4466;50.948;4.832;2024-03-08T15:04:09;13.40;99.90
8860;DHT22;4466;50.948;4.832;2024-03-08T15:06:38;13.30;99.90
8860;DHT22;4466;50.948;4.832;2024-03-08T15:09:05;13.30;99.90
8860;DHT22;4466;50.948;4.832;2024-03-08T15:11:41;13.40;99.90
8860;DHT22;4466;50.948;4.832;2024-03-08T15:14:08;13.40;99.90
8860;DHT22;4466;50.948;4.832;2024-03-08T15:16:40;13.50;99.90
8860;DHT22;4466;50.948;4.832;2024-03-08T15:19:07;13.50;99.90
8860;DHT22;4466;50.948;4.832;2024-03-08T15:21:32;13.40;99.90
8860;DHT22;4466;50.948;4.832;2024-03-08T15:24:00;13.40;99.90
8860;DHT22;4466;50.948;4.832;2024-03-08T15:26:30;13.50;99.90
8860;DHT22;4466;50.948;4.832;2024-03-08T15:28:57;13.50;99.90
8860;DHT22;4466;50.948;4.832;2024-03-08T15:31:23;13.60;99.90
8860;DHT22;4466;50.948;4.832;2024-03-08T15:33:50;13.60;99.90
8860;DHT22;4466;50.948;4.832;2024-03-08T15:36:29;13.60;99.90
8860;DHT22;4466;50.948;4.832;2024-03-08T15:38:59;13.60;99.90
8860;DHT22;4466;50.948;4.832;2024-03-08T15:41:25;13.60;99.90
8860;DHT22;4466;50.948;4.832;2024-03-08T15:43:52;13.60;99.90
8860;DHT22;4466;50.948;4.832;2024-03-08T15:46:18;13.70;99.90
8860;DHT22;4466;50.948;4.832;2024-03-08T15:48:48;13.70;99.90
8860;DHT22;4466;50.948;4.832;2024-03-08T15:51:14;14.00;99.90
8860;DHT22;4466;50.948;4.832;2024-03-08T15:53:43;14.80;99.90
8860;DHT22;4466;50.948;4.832;2024-03-08T15:56:14;15.70;99.90
8860;DHT22;4466;50.948;4.832;2024-03-08T16:01:08;17.90;99.90
8860;DHT22;4466;50.948;4.832;2024-03-08T16:03:35;18.10;99.90
8860;DHT22;4466;50.948;4.832;2024-03-08T16:06:01;18.50;99.90
8860;DHT22;4466;50.948;4.832;2024-03-08T16:10:58;19.20;99.30
8860;DHT22;4466;50.948;4.832;2024-03-08T16:13:26;19.20;98.20
8860;DHT22;4466;50.948;4.832;2024-03-08T16:15:53;19.50;97.40
8860;DHT22;4466;50.948;4.832;2024-03-08T16:18:21;19.50;96.30
8860;DHT22;4466;50.948;4.832;2024-03-08T16:20:48;19.60;95.80
8860;DHT22;4466;50.948;4.832;2024-03-08T16:23:15;19.70;94.90
8860;DHT22;4466;50.948;4.832;2024-03-08T16:25:41;19.60;94.30
8860;DHT22;4466;50.948;4.832;2024-03-08T16:28:08;19.40;94.00